sensor_id;sensor_type;location;lat;lon;timestamp;P1;durP1;ratioP1;P2;durP2;ratioP2
49340;SDS011;35209;51.050;13.678;2023-09-18T00:02:55;2.42;;;2.20;;
49340;SDS011;35209;51.050;13.678;2023-09-18T00:07:56;2.97;;;2.78;;
49340;SDS011;35209;51.050;13.678;2023-09-18T00:12:58;3.08;;;2.78;;
49340;SDS011;35209;51.050;13.678;2023-09-18T00:18:00;2.83;;;2.47;;
49340;SDS011;35209;51.050;13.678;2023-09-18T00:23:03;3.72;;;3.42;;
49340;SDS011;35209;51.050;13.678;2023-09-18T00:28:05;2.72;;;2.53;;
49340;SDS011;35209;51.050;13.678;2023-09-18T00:33:07;2.38;;;2.20;;
49340;SDS011;35209;51.050;13.678;2023-09-18T00:38:09;3.63;;;2.85;;
49340;SDS011;35209;51.050;13.678;2023-09-18T00:43:11;3.22;;;2.70;;
49340;SDS011;35209;51.050;13.678;2023-09-18T00:48:13;3.00;;;2.80;;
49340;SDS011;35209;51.050;13.678;2023-09-18T00:53:17;3.28;;;2.97;;
49340;SDS011;35209;51.050;13.678;2023-09-18T00:58:22;2.90;;;2.65;;
49340;SDS011;35209;51.050;13.678;2023-09-18T01:03:24;3.85;;;2.80;;
49340;SDS011;35209;51.050;13.678;2023-09-18T01:08:27;3.15;;;2.78;;
49340;SDS011;35209;51.050;13.678;2023-09-18T01:13:43;3.60;;;3.30;;
49340;SDS011;35209;51.050;13.678;2023-09-18T01:18:51;3.50;;;2.55;;
49340;SDS011;35209;51.050;13.678;2023-09-18T01:23:54;3.20;;;2.72;;
49340;SDS011;35209;51.050;13.678;2023-09-18T01:28:55;3.20;;;3.00;;
49340;SDS011;35209;51.050;13.678;2023-09-18T01:33:58;2.97;;;2.78;;
49340;SDS011;35209;51.050;13.678;2023-09-18T01:39:00;3.80;;;3.50;;
49340;SDS011;35209;51.050;13.678;2023-09-18T01:44:02;3.08;;;2.88;;
49340;SDS011;35209;51.050;13.678;2023-09-18T01:49:06;3.20;;;3.00;;
49340;SDS011;35209;51.050;13.678;2023-09-18T01:54:09;5.47;;;3.70;;
49340;SDS011;35209;51.050;13.678;2023-09-18T01:59:11;5.45;;;4.32;;
49340;SDS011;35209;51.050;13.678;2023-09-18T02:04:13;4.03;;;3.72;;
49340;SDS011;35209;51.050;13.678;2023-09-18T02:09:35;4.03;;;3.67;;
49340;SDS011;35209;51.050;13.678;2023-09-18T02:14:36;3.63;;;3.33;;
49340;SDS011;35209;51.050;13.678;2023-09-18T02:19:38;3.70;;;3.40;;
49340;SDS011;35209;51.050;13.678;2023-09-18T02:24:40;3.88;;;3.38;;
49340;SDS011;35209;51.050;13.678;2023-09-18T02:29:42;4.05;;;3.75;;
49340;SDS011;35209;51.050;13.678;2023-09-18T02:34:44;3.65;;;3.35;;
49340;SDS011;35209;51.050;13.678;2023-09-18T02:39:46;4.22;;;3.85;;
49340;SDS011;35209;51.050;13.678;2023-09-18T02:44:48;3.85;;;3.55;;
49340;SDS011;35209;51.050;13.678;2023-09-18T02:49:50;3.88;;;3.47;;
49340;SDS011;35209;51.050;13.678;2023-09-18T02:54:51;4.30;;;4.00;;
49340;SDS011;35209;51.050;13.678;2023-09-18T02:59:53;3.95;;;3.67;;
49340;SDS011;35209;51.050;13.678;2023-09-18T03:04:55;3.95;;;3.72;;
49340;SDS011;35209;51.050;13.678;2023-09-18T03:09:58;4.55;;;4.25;;
49340;SDS011;35209;51.050;13.678;2023-09-18T03:15:00;4.45;;;4.15;;
49340;SDS011;35209;51.050;13.678;2023-09-18T03:20:02;3.60;;;3.40;;
49340;SDS011;35209;51.050;13.678;2023-09-18T03:25:04;4.20;;;3.90;;
49340;SDS011;35209;51.050;13.678;2023-09-18T03:30:06;4.53;;;4.00;;
49340;SDS011;35209;51.050;13.678;2023-09-18T03:35:10;4.13;;;3.83;;
49340;SDS011;35209;51.050;13.678;2023-09-18T03:40:22;6.43;;;4.40;;
49340;SDS011;35209;51.050;13.678;2023-09-18T03:45:24;5.15;;;4.85;;
49340;SDS011;35209;51.050;13.678;2023-09-18T03:50:26;4.70;;;4.28;;
49340;SDS011;35209;51.050;13.678;2023-09-18T03:55:28;4.65;;;4.35;;
49340;SDS011;35209;51.050;13.678;2023-09-18T04:00:31;4.00;;;3.70;;
49340;SDS011;35209;51.050;13.678;2023-09-18T04:05:33;4.95;;;4.55;;
49340;SDS011;35209;51.050;13.678;2023-09-18T04:10:35;4.55;;;4.15;;
49340;SDS011;35209;51.050;13.678;2023-09-18T04:15:37;6.60;;;4.53;;
49340;SDS011;35209;51.050;13.678;2023-09-18T04:20:39;4.53;;;4.20;;
49340;SDS011;35209;51.050;13.678;2023-09-18T04:25:41;3.25;;;3.05;;
49340;SDS011;35209;51.050;13.678;2023-09-18T04:30:43;2.70;;;2.50;;
49340;SDS011;35209;51.050;13.678;2023-09-18T04:35:46;1.70;;;1.60;;
49340;SDS011;35209;51.050;13.678;2023-09-18T04:40:48;1.70;;;1.60;;
49340;SDS011;35209;51.050;13.678;2023-09-18T04:45:50;1.63;;;1.52;;
49340;SDS011;35209;51.050;13.678;2023-09-18T04:50:52;1.50;;;1.40;;
49340;SDS011;35209;51.050;13.678;2023-09-18T04:55:54;1.90;;;1.70;;
49340;SDS011;35209;51.050;13.678;2023-09-18T05:00:57;1.70;;;1.60;;
49340;SDS011;35209;51.050;13.678;2023-09-18T05:06:00;1.40;;;1.30;;
49340;SDS011;35209;51.050;13.678;2023-09-18T05:11:03;2.47;;;1.98;;
49340;SDS011;35209;51.050;13.678;2023-09-18T05:16:05;1.38;;;1.27;;
49340;SDS011;35209;51.050;13.678;2023-09-18T05:21:09;1.92;;;1.70;;
49340;SDS011;35209;51.050;13.678;2023-09-18T05:26:11;1.75;;;1.65;;
49340;SDS011;35209;51.050;13.678;2023-09-18T05:31:13;1.40;;;1.30;;
49340;SDS011;35209;51.050;13.678;2023-09-18T05:36:17;2.22;;;2.00;;
49340;SDS011;35209;51.050;13.678;2023-09-18T05:41:18;1.50;;;1.40;;
49340;SDS011;35209;51.050;13.678;2023-09-18T05:46:20;1.63;;;1.30;;
49340;SDS011;35209;51.050;13.678;2023-09-18T05:51:25;1.55;;;1.45;;
49340;SDS011;35209;51.050;13.678;2023-09-18T05:56:26;2.13;;;1.38;;
49340;SDS011;35209;51.050;13.678;2023-09-18T06:01:28;1.60;;;1.50;;
49340;SDS011;35209;51.050;13.678;2023-09-18T06:06:30;1.33;;;1.20;;
49340;SDS011;35209;51.050;13.678;2023-09-18T06:11:32;1.30;;;1.20;;
49340;SDS011;35209;51.050;13.678;2023-09-18T06:16:34;1.40;;;1.30;;
49340;SDS011;35209;51.050;13.678;2023-09-18T06:21:36;1.60;;;1.50;;
49340;SDS011;35209;51.050;13.678;2023-09-18T06:26:37;1.58;;;1.48;;
49340;SDS011;35209;51.050;13.678;2023-09-18T06:31:39;1.45;;;1.35;;
49340;SDS011;35209;51.050;13.678;2023-09-18T06:36:41;1.25;;;1.15;;
49340;SDS011;35209;51.050;13.678;2023-09-18T06:41:43;1.52;;;1.25;;
49340;SDS011;35209;51.050;13.678;2023-09-18T06:46:46;1.50;;;1.30;;
49340;SDS011;35209;51.050;13.678;2023-09-18T06:51:48;3.15;;;1.40;;
49340;SDS011;35209;51.050;13.678;2023-09-18T06:56:50;1.52;;;1.38;;
49340;SDS011;35209;51.050;13.678;2023-09-18T07:01:51;1.55;;;1.42;;
49340;SDS011;35209;51.050;13.678;2023-09-18T07:06:53;2.03;;;1.55;;
49340;SDS011;35209;51.050;13.678;2023-09-18T07:11:55;1.30;;;1.20;;
49340;SDS011;35209;51.050;13.678;2023-09-18T07:16:57;1.70;;;1.60;;
49340;SDS011;35209;51.050;13.678;2023-09-18T07:22:00;1.60;;;1.50;;
49340;SDS011;35209;51.050;13.678;2023-09-18T07:27:02;1.77;;;1.25;;
49340;SDS011;35209;51.050;13.678;2023-09-18T07:32:04;1.50;;;1.40;;
49340;SDS011;35209;51.050;13.678;2023-09-18T07:37:06;1.60;;;1.50;;
49340;SDS011;35209;51.050;13.678;2023-09-18T07:42:08;1.77;;;1.50;;
49340;SDS011;35209;51.050;13.678;2023-09-18T07:47:10;1.50;;;1.40;;
49340;SDS011;35209;51.050;13.678;2023-09-18T07:52:12;1.40;;;1.30;;
49340;SDS011;35209;51.050;13.678;2023-09-18T07:57:13;2.15;;;1.25;;
49340;SDS011;35209;51.050;13.678;2023-09-18T08:02:17;1.55;;;1.45;;
49340;SDS011;35209;51.050;13.678;2023-09-18T08:07:19;1.95;;;1.85;;
49340;SDS011;35209;51.050;13.678;2023-09-18T08:12:21;1.20;;;1.10;;
49340;SDS011;35209;51.050;13.678;2023-09-18T08:17:22;1.05;;;1.00;;
49340;SDS011;35209;51.050;13.678;2023-09-18T08:22:24;1.20;;;1.10;;
49340;SDS011;35209;51.050;13.678;2023-09-18T08:27:26;1.00;;;1.00;;
49340;SDS011;35209;51.050;13.678;2023-09-18T08:32:28;1.20;;;1.10;;
49340;SDS011;35209;51.050;13.678;2023-09-18T08:37:31;1.30;;;1.20;;
49340;SDS011;35209;51.050;13.678;2023-09-18T08:42:34;1.20;;;1.10;;
49340;SDS011;35209;51.050;13.678;2023-09-18T08:47:38;1.25;;;1.15;;
49340;SDS011;35209;51.050;13.678;2023-09-18T08:52:43;1.40;;;1.30;;
49340;SDS011;35209;51.050;13.678;2023-09-18T08:57:48;1.20;;;0.90;;
49340;SDS011;35209;51.050;13.678;2023-09-18T09:02:51;1.08;;;0.98;;
49340;SDS011;35209;51.050;13.678;2023-09-18T09:07:55;0.98;;;0.90;;
49340;SDS011;35209;51.050;13.678;2023-09-18T09:12:58;1.23;;;1.00;;
49340;SDS011;35209;51.050;13.678;2023-09-18T09:18:02;1.33;;;1.23;;
49340;SDS011;35209;51.050;13.678;2023-09-18T09:23:09;0.73;;;0.70;;
49340;SDS011;35209;51.050;13.678;2023-09-18T09:28:12;2.03;;;1.50;;
49340;SDS011;35209;51.050;13.678;2023-09-18T09:33:14;1.13;;;1.02;;
49340;SDS011;35209;51.050;13.678;2023-09-18T09:38:16;1.10;;;1.00;;
49340;SDS011;35209;51.050;13.678;2023-09-18T09:43:18;1.10;;;0.90;;
49340;SDS011;35209;51.050;13.678;2023-09-18T09:48:21;1.02;;;1.00;;
49340;SDS011;35209;51.050;13.678;2023-09-18T09:53:44;0.77;;;0.77;;
49340;SDS011;35209;51.050;13.678;2023-09-18T09:59:02;0.70;;;0.70;;
49340;SDS011;35209;51.050;13.678;2023-09-18T10:04:15;0.95;;;0.85;;
49340;SDS011;35209;51.050;13.678;2023-09-18T10:09:19;0.80;;;0.80;;
49340;SDS011;35209;51.050;13.678;2023-09-18T10:14:29;0.80;;;0.80;;
49340;SDS011;35209;51.050;13.678;2023-09-18T10:25:21;0.80;;;0.80;;
49340;SDS011;35209;51.050;13.678;2023-09-18T10:30:27;1.00;;;0.90;;
49340;SDS011;35209;51.050;13.678;2023-09-18T10:35:31;1.70;;;1.60;;
49340;SDS011;35209;51.050;13.678;2023-09-18T10:40:33;0.70;;;0.70;;
49340;SDS011;35209;51.050;13.678;2023-09-18T10:45:37;1.90;;;1.10;;
49340;SDS011;35209;51.050;13.678;2023-09-18T10:50:39;1.05;;;0.88;;
49340;SDS011;35209;51.050;13.678;2023-09-18T10:55:44;0.75;;;0.75;;
49340;SDS011;35209;51.050;13.678;2023-09-18T11:00:47;0.75;;;0.75;;
49340;SDS011;35209;51.050;13.678;2023-09-18T11:05:49;0.60;;;0.60;;
49340;SDS011;35209;51.050;13.678;2023-09-18T11:11:07;0.55;;;0.55;;
49340;SDS011;35209;51.050;13.678;2023-09-18T11:21:30;0.60;;;0.60;;
49340;SDS011;35209;51.050;13.678;2023-09-18T11:26:34;1.00;;;0.90;;
49340;SDS011;35209;51.050;13.678;2023-09-18T11:36:42;0.80;;;0.80;;
49340;SDS011;35209;51.050;13.678;2023-09-18T11:41:44;0.85;;;0.80;;
49340;SDS011;35209;51.050;13.678;2023-09-18T11:46:48;2.03;;;0.90;;
49340;SDS011;35209;51.050;13.678;2023-09-18T11:51:54;0.47;;;0.47;;
49340;SDS011;35209;51.050;13.678;2023-09-18T11:57:02;0.73;;;0.73;;
49340;SDS011;35209;51.050;13.678;2023-09-18T12:02:08;1.05;;;0.80;;
49340;SDS011;35209;51.050;13.678;2023-09-18T12:07:22;0.70;;;0.70;;
49340;SDS011;35209;51.050;13.678;2023-09-18T12:12:24;0.80;;;0.80;;
49340;SDS011;35209;51.050;13.678;2023-09-18T12:17:27;1.00;;;0.80;;
49340;SDS011;35209;51.050;13.678;2023-09-18T12:22:29;0.70;;;0.70;;
49340;SDS011;35209;51.050;13.678;2023-09-18T12:27:38;1.60;;;0.98;;
49340;SDS011;35209;51.050;13.678;2023-09-18T12:32:40;1.00;;;1.00;;
49340;SDS011;35209;51.050;13.678;2023-09-18T12:37:43;1.08;;;0.80;;
49340;SDS011;35209;51.050;13.678;2023-09-18T12:42:46;0.70;;;0.60;;
49340;SDS011;35209;51.050;13.678;2023-09-18T12:47:48;0.60;;;0.60;;
49340;SDS011;35209;51.050;13.678;2023-09-18T12:52:51;0.88;;;0.88;;
49340;SDS011;35209;51.050;13.678;2023-09-18T12:57:53;1.02;;;0.80;;
49340;SDS011;35209;51.050;13.678;2023-09-18T13:02:55;0.70;;;0.70;;
49340;SDS011;35209;51.050;13.678;2023-09-18T13:08:01;1.00;;;0.80;;
49340;SDS011;35209;51.050;13.678;2023-09-18T13:13:05;1.55;;;1.00;;
49340;SDS011;35209;51.050;13.678;2023-09-18T13:18:10;0.60;;;0.60;;
49340;SDS011;35209;51.050;13.678;2023-09-18T13:23:15;1.30;;;0.90;;
49340;SDS011;35209;51.050;13.678;2023-09-18T13:28:22;1.05;;;0.80;;
49340;SDS011;35209;51.050;13.678;2023-09-18T13:33:24;0.60;;;0.60;;
49340;SDS011;35209;51.050;13.678;2023-09-18T13:38:27;1.30;;;0.88;;
49340;SDS011;35209;51.050;13.678;2023-09-18T13:43:29;1.10;;;0.88;;
49340;SDS011;35209;51.050;13.678;2023-09-18T13:53:37;0.80;;;0.80;;
49340;SDS011;35209;51.050;13.678;2023-09-18T13:58:39;0.60;;;0.60;;
49340;SDS011;35209;51.050;13.678;2023-09-18T14:03:42;0.55;;;0.55;;
49340;SDS011;35209;51.050;13.678;2023-09-18T14:08:46;0.82;;;0.60;;
49340;SDS011;35209;51.050;13.678;2023-09-18T14:13:48;3.80;;;0.77;;
49340;SDS011;35209;51.050;13.678;2023-09-18T14:18:50;1.95;;;1.00;;
49340;SDS011;35209;51.050;13.678;2023-09-18T14:23:52;1.00;;;0.65;;
49340;SDS011;35209;51.050;13.678;2023-09-18T14:28:54;1.52;;;0.55;;
49340;SDS011;35209;51.050;13.678;2023-09-18T14:33:56;1.48;;;0.40;;
49340;SDS011;35209;51.050;13.678;2023-09-18T14:38:59;11.50;;;1.80;;
49340;SDS011;35209;51.050;13.678;2023-09-18T14:44:02;3.33;;;0.60;;
49340;SDS011;35209;51.050;13.678;2023-09-18T14:49:10;0.65;;;0.60;;
49340;SDS011;35209;51.050;13.678;2023-09-18T14:54:12;1.92;;;0.85;;
49340;SDS011;35209;51.050;13.678;2023-09-18T14:59:15;1.70;;;0.50;;
49340;SDS011;35209;51.050;13.678;2023-09-18T15:04:32;1.17;;;0.57;;
49340;SDS011;35209;51.050;13.678;2023-09-18T15:09:37;0.75;;;0.75;;
49340;SDS011;35209;51.050;13.678;2023-09-18T15:14:39;0.40;;;0.40;;
49340;SDS011;35209;51.050;13.678;2023-09-18T15:19:41;1.73;;;0.45;;
49340;SDS011;35209;51.050;13.678;2023-09-18T15:24:44;0.73;;;0.30;;
49340;SDS011;35209;51.050;13.678;2023-09-18T15:29:46;0.30;;;0.15;;
49340;SDS011;35209;51.050;13.678;2023-09-18T15:34:47;0.55;;;0.28;;
49340;SDS011;35209;51.050;13.678;2023-09-18T15:39:49;0.20;;;0.10;;
49340;SDS011;35209;51.050;13.678;2023-09-18T15:44:52;3.85;;;0.40;;
49340;SDS011;35209;51.050;13.678;2023-09-18T15:49:54;0.20;;;0.20;;
49340;SDS011;35209;51.050;13.678;2023-09-18T15:54:56;0.60;;;0.22;;
49340;SDS011;35209;51.050;13.678;2023-09-18T15:59:59;0.70;;;0.20;;
49340;SDS011;35209;51.050;13.678;2023-09-18T16:05:01;1.88;;;0.43;;
49340;SDS011;35209;51.050;13.678;2023-09-18T16:10:07;1.15;;;0.40;;
49340;SDS011;35209;51.050;13.678;2023-09-18T16:15:09;0.45;;;0.30;;
49340;SDS011;35209;51.050;13.678;2023-09-18T16:20:11;0.55;;;0.30;;
49340;SDS011;35209;51.050;13.678;2023-09-18T16:25:13;0.55;;;0.30;;
49340;SDS011;35209;51.050;13.678;2023-09-18T16:30:16;0.93;;;0.30;;
49340;SDS011;35209;51.050;13.678;2023-09-18T16:35:18;0.35;;;0.22;;
49340;SDS011;35209;51.050;13.678;2023-09-18T16:40:20;0.55;;;0.30;;
49340;SDS011;35209;51.050;13.678;2023-09-18T16:45:22;0.35;;;0.30;;
49340;SDS011;35209;51.050;13.678;2023-09-18T16:50:24;1.10;;;0.20;;
49340;SDS011;35209;51.050;13.678;2023-09-18T16:55:26;1.98;;;0.40;;
49340;SDS011;35209;51.050;13.678;2023-09-18T17:00:28;0.38;;;0.38;;
49340;SDS011;35209;51.050;13.678;2023-09-18T17:05:30;1.05;;;0.47;;
49340;SDS011;35209;51.050;13.678;2023-09-18T17:10:32;0.35;;;0.30;;
49340;SDS011;35209;51.050;13.678;2023-09-18T17:15:34;2.83;;;0.52;;
49340;SDS011;35209;51.050;13.678;2023-09-18T17:20:35;0.50;;;0.30;;
49340;SDS011;35209;51.050;13.678;2023-09-18T17:25:37;0.93;;;0.40;;
49340;SDS011;35209;51.050;13.678;2023-09-18T17:30:39;0.68;;;0.40;;
49340;SDS011;35209;51.050;13.678;2023-09-18T17:35:41;0.68;;;0.40;;
49340;SDS011;35209;51.050;13.678;2023-09-18T17:40:46;1.53;;;0.60;;
49340;SDS011;35209;51.050;13.678;2023-09-18T17:45:48;0.70;;;0.50;;
49340;SDS011;35209;51.050;13.678;2023-09-18T17:50:50;1.17;;;0.60;;
49340;SDS011;35209;51.050;13.678;2023-09-18T17:55:52;1.08;;;0.70;;
49340;SDS011;35209;51.050;13.678;2023-09-18T18:00:54;1.38;;;0.80;;
49340;SDS011;35209;51.050;13.678;2023-09-18T18:05:57;1.38;;;0.80;;
49340;SDS011;35209;51.050;13.678;2023-09-18T18:11:00;1.33;;;0.60;;
49340;SDS011;35209;51.050;13.678;2023-09-18T18:16:02;0.68;;;0.60;;
49340;SDS011;35209;51.050;13.678;2023-09-18T18:21:06;2.28;;;0.70;;
49340;SDS011;35209;51.050;13.678;2023-09-18T18:26:09;1.08;;;0.68;;
49340;SDS011;35209;51.050;13.678;2023-09-18T18:31:11;1.13;;;0.70;;
49340;SDS011;35209;51.050;13.678;2023-09-18T18:36:13;1.67;;;0.60;;
49340;SDS011;35209;51.050;13.678;2023-09-18T18:41:15;1.25;;;0.60;;
49340;SDS011;35209;51.050;13.678;2023-09-18T18:46:17;1.30;;;0.65;;
49340;SDS011;35209;51.050;13.678;2023-09-18T18:51:19;1.23;;;0.60;;
49340;SDS011;35209;51.050;13.678;2023-09-18T18:56:21;0.95;;;0.50;;
49340;SDS011;35209;51.050;13.678;2023-09-18T19:01:23;0.70;;;0.55;;
49340;SDS011;35209;51.050;13.678;2023-09-18T19:06:26;1.00;;;0.70;;
49340;SDS011;35209;51.050;13.678;2023-09-18T19:11:29;1.17;;;0.60;;
49340;SDS011;35209;51.050;13.678;2023-09-18T19:16:31;0.60;;;0.60;;
49340;SDS011;35209;51.050;13.678;2023-09-18T19:21:33;0.57;;;0.40;;
49340;SDS011;35209;51.050;13.678;2023-09-18T19:26:35;0.50;;;0.40;;
49340;SDS011;35209;51.050;13.678;2023-09-18T19:31:37;0.70;;;0.40;;
49340;SDS011;35209;51.050;13.678;2023-09-18T19:36:39;0.88;;;0.40;;
49340;SDS011;35209;51.050;13.678;2023-09-18T19:41:40;1.23;;;0.55;;
49340;SDS011;35209;51.050;13.678;2023-09-18T19:46:42;0.55;;;0.50;;
49340;SDS011;35209;51.050;13.678;2023-09-18T19:51:44;1.00;;;0.43;;
49340;SDS011;35209;51.050;13.678;2023-09-18T19:56:46;1.25;;;0.60;;
49340;SDS011;35209;51.050;13.678;2023-09-18T20:01:48;0.93;;;0.43;;
49340;SDS011;35209;51.050;13.678;2023-09-18T20:06:50;0.60;;;0.38;;
49340;SDS011;35209;51.050;13.678;2023-09-18T20:11:54;1.30;;;0.80;;
49340;SDS011;35209;51.050;13.678;2023-09-18T20:16:56;0.75;;;0.50;;
49340;SDS011;35209;51.050;13.678;2023-09-18T20:21:58;1.17;;;0.45;;
49340;SDS011;35209;51.050;13.678;2023-09-18T20:27:02;0.40;;;0.40;;
49340;SDS011;35209;51.050;13.678;2023-09-18T20:32:05;0.55;;;0.52;;
49340;SDS011;35209;51.050;13.678;2023-09-18T20:37:07;0.38;;;0.38;;
49340;SDS011;35209;51.050;13.678;2023-09-18T20:42:09;0.93;;;0.60;;
49340;SDS011;35209;51.050;13.678;2023-09-18T20:47:11;0.80;;;0.60;;
49340;SDS011;35209;51.050;13.678;2023-09-18T20:52:13;0.68;;;0.52;;
49340;SDS011;35209;51.050;13.678;2023-09-18T20:57:15;0.50;;;0.38;;
49340;SDS011;35209;51.050;13.678;2023-09-18T21:02:16;1.35;;;0.60;;
49340;SDS011;35209;51.050;13.678;2023-09-18T21:07:20;0.52;;;0.40;;
49340;SDS011;35209;51.050;13.678;2023-09-18T21:12:22;0.35;;;0.35;;
49340;SDS011;35209;51.050;13.678;2023-09-18T21:17:24;0.60;;;0.45;;
49340;SDS011;35209;51.050;13.678;2023-09-18T21:22:26;0.40;;;0.40;;
49340;SDS011;35209;51.050;13.678;2023-09-18T21:27:28;0.50;;;0.40;;
49340;SDS011;35209;51.050;13.678;2023-09-18T21:32:30;1.02;;;0.68;;
49340;SDS011;35209;51.050;13.678;2023-09-18T21:37:31;0.77;;;0.55;;
49340;SDS011;35209;51.050;13.678;2023-09-18T21:42:33;0.55;;;0.43;;
49340;SDS011;35209;51.050;13.678;2023-09-18T21:47:35;7.55;;;0.65;;
49340;SDS011;35209;51.050;13.678;2023-09-18T21:52:37;0.88;;;0.50;;
49340;SDS011;35209;51.050;13.678;2023-09-18T21:57:39;0.38;;;0.38;;
49340;SDS011;35209;51.050;13.678;2023-09-18T22:02:41;0.50;;;0.50;;
49340;SDS011;35209;51.050;13.678;2023-09-18T22:07:43;0.70;;;0.40;;
49340;SDS011;35209;51.050;13.678;2023-09-18T22:12:44;0.47;;;0.47;;
49340;SDS011;35209;51.050;13.678;2023-09-18T22:17:46;0.70;;;0.45;;
49340;SDS011;35209;51.050;13.678;2023-09-18T22:22:50;0.55;;;0.40;;
49340;SDS011;35209;51.050;13.678;2023-09-18T22:27:51;0.50;;;0.43;;
49340;SDS011;35209;51.050;13.678;2023-09-18T22:32:54;0.90;;;0.60;;
49340;SDS011;35209;51.050;13.678;2023-09-18T22:54:40;1.27;;;0.80;;
49340;SDS011;35209;51.050;13.678;2023-09-18T22:59:47;0.40;;;0.38;;
49340;SDS011;35209;51.050;13.678;2023-09-18T23:04:50;0.65;;;0.40;;
49340;SDS011;35209;51.050;13.678;2023-09-18T23:09:53;1.73;;;0.60;;
49340;SDS011;35209;51.050;13.678;2023-09-18T23:14:58;0.55;;;0.50;;
49340;SDS011;35209;51.050;13.678;2023-09-18T23:20:01;0.65;;;0.60;;
49340;SDS011;35209;51.050;13.678;2023-09-18T23:25:12;0.88;;;0.40;;
49340;SDS011;35209;51.050;13.678;2023-09-18T23:30:17;0.80;;;0.60;;
49340;SDS011;35209;51.050;13.678;2023-09-18T23:35:20;0.60;;;0.50;;
49340;SDS011;35209;51.050;13.678;2023-09-18T23:40:25;0.82;;;0.47;;
49340;SDS011;35209;51.050;13.678;2023-09-18T23:45:33;0.63;;;0.55;;
49340;SDS011;35209;51.050;13.678;2023-09-18T23:50:42;0.82;;;0.52;;
49340;SDS011;35209;51.050;13.678;2023-09-18T23:55:44;0.75;;;0.50;;
